Terminal Aerodrome Forecast
Issued by NWS

Home | Current Version | Previous Version | Text Only | Print | Product List | Glossary On
Versions: 1 2 3 4 5 6 7 8 9 10 11 12
792
FTUS42 TJSJ 271140
TAFNCM
TAF
TNCM 271140Z 2712/2812 11008KT P6SM SCT018
     FM271300 11013KT P6SM SCT020
     FM272300 08008KT P6SM VCSH SCT020=

USA.gov is the U.S. government's official web portal to all federal, state and local government web resources and services.